Time;durP1;ratioP1;P1;durP2;ratioP2;P2;SDS_P1;SDS_P2;PMS_P1;PMS_P2;Temp;Humidity;BMP_temperature;BMP_pressure;BME280_temperature;BME280_humidity;BME280_pressure;Samples;Min_cycle;Max_cycle;Signal;HPM_P1;HPM_P2
2021/07/23 00:01:27;;;;;;;;;;;;;;;23.58;52.78;101497.59;5021480;28;99218;-77
2021/07/23 00:03:54;;;;;;;;;;;;;;;23.66;52.57;101489.75;5018582;27;98843;-77
2021/07/23 00:06:20;;;;;;;;;;;;;;;23.69;52.42;101500.31;5031604;27;96953;-77
2021/07/23 00:08:46;;;;;;;;;;;;;;;23.56;53.06;101494.19;5028975;28;98477;-77
2021/07/23 00:11:13;;;;;;;;;;;;;;;23.40;53.38;101495.31;5019332;28;99211;-78
2021/07/23 00:13:39;;;;;;;;;;;;;;;23.33;53.53;101494.06;5030369;27;98038;-77
2021/07/23 00:16:05;;;;;;;;;;;;;;;23.34;53.37;101493.09;5030556;28;97352;-77
2021/07/23 00:18:33;;;;;;;;;;;;;;;23.19;54.18;101490.72;5026064;27;97123;-77
2021/07/23 00:20:59;;;;;;;;;;;;;;;23.33;53.73;101485.13;5022085;27;99388;-79
2021/07/23 00:23:25;;;;;;;;;;;;;;;23.35;53.62;101486.75;5019644;28;98159;-78
2021/07/23 00:25:52;;;;;;;;;;;;;;;23.44;53.50;101491.41;5027220;27;96806;-77
2021/07/23 00:28:18;;;;;;;;;;;;;;;23.39;53.39;101493.59;5029734;28;96827;-78
2021/07/23 00:30:45;;;;;;;;;;;;;;;23.02;54.66;101487.47;5019742;28;99595;-74
2021/07/23 00:33:11;;;;;;;;;;;;;;;23.12;54.24;101482.22;5025556;28;101050;-76
2021/07/23 00:35:39;;;;;;;;;;;;;;;23.01;54.64;101487.59;5033954;28;96820;-77
2021/07/23 00:38:06;;;;;;;;;;;;;;;23.11;54.49;101477.81;5025318;28;97214;-77
2021/07/23 00:40:35;;;;;;;;;;;;;;;22.96;54.93;101479.88;5039491;28;97909;-77
2021/07/23 00:43:02;;;;;;;;;;;;;;;22.87;55.33;101482.38;5027576;28;98137;-76
2021/07/23 00:45:28;;;;;;;;;;;;;;;22.86;55.11;101476.13;5023825;28;96887;-76
2021/07/23 00:47:55;;;;;;;;;;;;;;;22.84;55.50;101474.53;5025081;28;96853;-78
2021/07/23 00:50:22;;;;;;;;;;;;;;;22.67;56.03;101471.22;5026899;28;100340;-77
2021/07/23 00:52:50;;;;;;;;;;;;;;;22.69;56.20;101475.66;5028914;28;98916;-78
2021/07/23 00:55:17;;;;;;;;;;;;;;;22.64;56.25;101476.00;5038788;28;96629;-77
2021/07/23 00:57:44;;;;;;;;;;;;;;;22.64;56.46;101482.22;5030967;27;96924;-77
2021/07/23 01:00:11;;;;;;;;;;;;;;;22.80;55.75;101476.59;5018806;28;99009;-78
2021/07/23 01:02:38;;;;;;;;;;;;;;;22.74;56.05;101474.38;5020966;28;97691;-76
2021/07/23 01:05:04;;;;;;;;;;;;;;;22.70;56.10;101480.06;5020180;28;96959;-77
2021/07/23 01:07:31;;;;;;;;;;;;;;;22.64;56.23;101471.44;5028646;28;98439;-77
2021/07/23 01:10:01;;;;;;;;;;;;;;;22.66;56.08;101485.66;5030547;27;101682;-77
2021/07/23 01:12:28;;;;;;;;;;;;;;;22.67;56.03;101478.44;5028357;28;102627;-77
2021/07/23 01:14:55;;;;;;;;;;;;;;;22.74;55.91;101479.75;5022421;28;96824;-78
2021/07/23 01:17:22;;;;;;;;;;;;;;;22.82;55.61;101480.03;5014436;28;96831;-77
2021/07/23 01:19:52;;;;;;;;;;;;;;;22.86;55.54;101488.75;5018986;28;99045;-77
2021/07/23 01:22:19;;;;;;;;;;;;;;;22.84;55.53;101480.75;5017931;28;98973;-76
2021/07/23 01:24:47;;;;;;;;;;;;;;;22.84;55.62;101475.38;5030002;28;96640;-77
2021/07/23 01:27:14;;;;;;;;;;;;;;;22.74;55.87;101477.06;5015122;28;96868;-77
2021/07/23 01:29:40;;;;;;;;;;;;;;;22.67;56.25;101479.31;5024308;28;98895;-78
2021/07/23 01:32:07;;;;;;;;;;;;;;;22.72;56.04;101480.78;5021764;28;99476;-78
2021/07/23 01:34:33;;;;;;;;;;;;;;;22.62;56.39;101473.41;5022945;28;97117;-78
2021/07/23 01:36:59;;;;;;;;;;;;;;;22.58;56.64;101473.75;5021570;28;96862;-77
2021/07/23 01:39:26;;;;;;;;;;;;;;;22.67;56.37;101473.94;5025871;28;99431;-76
2021/07/23 01:41:54;;;;;;;;;;;;;;;22.72;56.39;101478.97;5022216;28;98810;-77
2021/07/23 01:44:21;;;;;;;;;;;;;;;22.69;56.40;101473.81;5044192;27;96507;-77
2021/07/23 01:46:47;;;;;;;;;;;;;;;22.72;56.44;101465.50;5039564;27;95948;-78
2021/07/23 01:49:13;;;;;;;;;;;;;;;22.85;56.18;101454.69;5045695;27;97790;-76
2021/07/23 01:51:40;;;;;;;;;;;;;;;22.90;55.96;101458.78;5043779;27;97988;-76
2021/07/23 01:54:06;;;;;;;;;;;;;;;22.70;56.05;101461.22;5021133;28;97354;-76
2021/07/23 01:56:32;;;;;;;;;;;;;;;22.59;56.24;101459.31;5014653;28;96834;-77
2021/07/23 01:59:00;;;;;;;;;;;;;;;22.45;56.84;101454.94;5022881;28;99464;-77
2021/07/23 02:01:26;;;;;;;;;;;;;;;22.55;56.79;101447.03;5032401;27;98769;-76
2021/07/23 02:03:52;;;;;;;;;;;;;;;22.50;56.99;101460.00;5023976;28;96904;-77
2021/07/23 02:06:19;;;;;;;;;;;;;;;22.55;57.24;101458.69;5035899;28;96936;-75
2021/07/23 02:08:45;;;;;;;;;;;;;;;22.50;57.24;101455.47;5022720;28;98250;-77
2021/07/23 02:11:11;;;;;;;;;;;;;;;22.60;56.95;101453.81;5016098;27;98751;-77
2021/07/23 02:13:38;;;;;;;;;;;;;;;22.63;56.81;101453.59;5017605;28;97049;-77
2021/07/23 02:16:06;;;;;;;;;;;;;;;22.60;56.63;101452.94;5014048;28;99417;-76
2021/07/23 02:18:32;;;;;;;;;;;;;;;22.65;56.60;101457.00;5022489;27;99400;-77
2021/07/23 02:20:58;;;;;;;;;;;;;;;22.71;56.31;101458.38;5034084;28;99311;-76
2021/07/23 02:23:25;;;;;;;;;;;;;;;22.73;56.06;101459.16;5021833;28;96806;-77
2021/07/23 02:25:51;;;;;;;;;;;;;;;22.84;56.07;101455.69;5038259;28;96690;-78
2021/07/23 02:28:17;;;;;;;;;;;;;;;22.72;56.41;101453.84;5020262;28;99312;-77
2021/07/23 02:30:44;;;;;;;;;;;;;;;22.72;56.46;101448.47;5016915;27;98878;-78
2021/07/23 02:33:11;;;;;;;;;;;;;;;22.69;56.53;101449.56;5027502;28;97057;-77
2021/07/23 02:35:38;;;;;;;;;;;;;;;22.77;56.34;101444.50;5035663;27;96970;-77
2021/07/23 02:38:04;;;;;;;;;;;;;;;22.80;56.00;101435.31;5024678;28;99503;-77
2021/07/23 02:40:30;;;;;;;;;;;;;;;22.71;56.33;101449.47;5024030;28;99018;-78
2021/07/23 02:42:57;;;;;;;;;;;;;;;22.66;56.63;101441.72;5028863;28;96711;-78
2021/07/23 02:45:23;;;;;;;;;;;;;;;22.64;56.79;101441.00;5037149;28;96837;-77
2021/07/23 02:47:51;;;;;;;;;;;;;;;22.71;56.37;101436.81;5017134;28;99058;-77
2021/07/23 02:50:20;;;;;;;;;;;;;;;22.65;56.68;101443.53;5016910;28;99255;-77
2021/07/23 02:52:46;;;;;;;;;;;;;;;22.60;56.85;101440.34;5020841;28;96794;-76
2021/07/23 02:55:12;;;;;;;;;;;;;;;22.64;57.01;101441.00;5038974;28;97037;-78
2021/07/23 02:57:39;;;;;;;;;;;;;;;22.59;56.91;101444.00;5029241;28;99448;-77
2021/07/23 03:00:05;;;;;;;;;;;;;;;22.63;56.93;101445.50;5033774;28;98911;-75
2021/07/23 03:02:32;;;;;;;;;;;;;;;22.50;57.25;101439.31;5021509;27;99005;-76
2021/07/23 03:04:58;;;;;;;;;;;;;;;22.56;57.13;101444.25;4999864;28;98925;-76
2021/07/23 03:07:26;;;;;;;;;;;;;;;22.62;56.90;101438.41;5022879;28;98437;-76
2021/07/23 03:09:52;;;;;;;;;;;;;;;22.52;56.54;101441.88;5024676;28;99258;-76
2021/07/23 03:12:18;;;;;;;;;;;;;;;22.60;56.51;101439.47;5015531;28;98586;-76
2021/07/23 03:14:44;;;;;;;;;;;;;;;22.71;56.22;101444.91;5034168;28;97303;-76
2021/07/23 03:17:10;;;;;;;;;;;;;;;22.85;55.58;101454.69;5030445;28;98994;-75
2021/07/23 03:19:37;;;;;;;;;;;;;;;22.77;55.60;101446.34;5036277;27;99579;-77
2021/07/23 03:22:03;;;;;;;;;;;;;;;22.84;55.73;101439.53;5024580;28;96860;-77
2021/07/23 03:24:33;;;;;;;;;;;;;;;22.89;55.68;101443.56;5035206;28;96983;-76
2021/07/23 03:26:59;;;;;;;;;;;;;;;22.52;56.32;101439.19;5030022;28;99413;-77
2021/07/23 03:29:25;;;;;;;;;;;;;;;22.62;56.38;101433.00;5025130;28;98130;-76
2021/07/23 03:31:51;;;;;;;;;;;;;;;22.80;55.81;101435.31;5023070;27;96915;-76
2021/07/23 03:34:18;;;;;;;;;;;;;;;22.79;55.87;101437.16;5016091;28;96844;-76
2021/07/23 03:36:44;;;;;;;;;;;;;;;22.77;55.75;101432.88;5026225;28;98985;-77
2021/07/23 03:39:10;;;;;;;;;;;;;;;22.89;55.48;101424.72;5031791;27;98945;-76
2021/07/23 03:41:42;;;;;;;;;;;;;;;22.87;55.43;101432.03;5023701;27;96867;-78
2021/07/23 03:44:08;;;;;;;;;;;;;;;22.98;54.75;101434.78;5028935;28;96798;-76
2021/07/23 03:46:36;;;;;;;;;;;;;;;22.71;55.88;101431.44;5030378;28;99358;-78
2021/07/23 03:49:02;;;;;;;;;;;;;;;22.79;55.70;101434.44;5025802;28;98760;-77
2021/07/23 03:51:29;;;;;;;;;;;;;;;22.88;55.63;101438.28;5026801;28;97141;-79
2021/07/23 03:53:55;;;;;;;;;;;;;;;22.99;55.42;101441.03;5026405;28;96939;-78
2021/07/23 03:56:21;;;;;;;;;;;;;;;23.11;55.11;101440.06;5025137;28;99293;-78
2021/07/23 03:58:51;;;;;;;;;;;;;;;23.15;54.83;101436.19;5024423;28;98801;-76
2021/07/23 04:01:19;;;;;;;;;;;;;;;23.24;54.07;101435.44;5030059;27;96884;-79
2021/07/23 04:03:46;;;;;;;;;;;;;;;23.16;53.94;101435.22;5035857;28;97122;-78
2021/07/23 04:06:12;;;;;;;;;;;;;;;23.31;53.81;101431.31;5026312;28;98452;-78
2021/07/23 04:08:39;;;;;;;;;;;;;;;23.36;53.89;101422.88;5028824;28;99177;-78
2021/07/23 04:11:05;;;;;;;;;;;;;;;23.38;54.16;101427.16;5028329;28;96844;-78
2021/07/23 04:13:32;;;;;;;;;;;;;;;23.53;53.91;101433.22;5022282;28;97062;-79
2021/07/23 04:15:59;;;;;;;;;;;;;;;23.38;54.19;101424.47;5027037;28;98897;-79
2021/07/23 04:18:26;;;;;;;;;;;;;;;23.36;54.89;101425.56;5018102;28;96774;-79
2021/07/23 04:20:52;;;;;;;;;;;;;;;23.29;55.39;101433.28;5037025;28;96694;-78
2021/07/23 04:23:18;;;;;;;;;;;;;;;23.37;55.45;101430.81;5022378;28;96719;-78
2021/07/23 04:25:44;;;;;;;;;;;;;;;23.39;55.58;101439.66;5028626;27;98923;-78
2021/07/23 04:28:11;;;;;;;;;;;;;;;23.62;55.00;101439.75;5005255;28;99361;-75
2021/07/23 04:30:37;;;;;;;;;;;;;;;23.48;55.24;101437.25;5033258;28;96958;-77
2021/07/23 04:33:07;;;;;;;;;;;;;;;23.62;54.56;101439.75;5034851;28;96799;-78
2021/07/23 04:35:33;;;;;;;;;;;;;;;23.52;54.94;101438.72;5034630;28;98406;-77
2021/07/23 04:37:59;;;;;;;;;;;;;;;23.47;54.99;101438.22;5039086;28;99214;-77
2021/07/23 04:40:26;;;;;;;;;;;;;;;23.37;55.18;101435.34;5038203;28;96593;-77
2021/07/23 04:42:52;;;;;;;;;;;;;;;23.41;54.90;101428.75;5045041;27;96647;-76
2021/07/23 04:45:19;;;;;;;;;;;;;;;23.42;55.06;101427.78;5037792;28;98120;-76
2021/07/23 04:47:45;;;;;;;;;;;;;;;23.49;54.94;101430.91;5038596;28;96772;-76
2021/07/23 04:50:12;;;;;;;;;;;;;;;23.57;54.90;101431.13;5048832;28;96266;-77
2021/07/23 04:52:39;;;;;;;;;;;;;;;23.77;54.47;101433.09;5057237;28;96597;-76
2021/07/23 04:55:08;;;;;;;;;;;;;;;23.85;54.13;101430.66;5047313;27;97862;-77
2021/07/23 04:57:42;;;;;;;;;;;;;;;24.16;53.09;101429.88;5043093;28;99936;-77
2021/07/23 05:00:08;;;;;;;;;;;;;;;24.02;53.08;101422.06;5048130;28;96490;-78
2021/07/23 05:02:35;;;;;;;;;;;;;;;24.20;52.56;101436.81;5037640;28;96698;-76
2021/07/23 05:05:01;;;;;;;;;;;;;;;24.44;52.29;101441.16;5051416;28;97878;-77
2021/07/23 05:07:29;;;;;;;;;;;;;;;24.62;51.31;101436.91;5048412;28;98094;-75
2021/07/23 05:09:59;;;;;;;;;;;;;;;24.63;51.18;101433.22;5054570;28;96061;-78
2021/07/23 05:12:26;;;;;;;;;;;;;;;24.76;50.38;101443.88;5046802;28;96613;-77
2021/07/23 05:14:52;;;;;;;;;;;;;;;24.78;50.52;101437.34;5046467;27;98053;-77
2021/07/23 05:17:19;;;;;;;;;;;;;;;24.59;50.36;101427.25;5038694;28;99143;-77
2021/07/23 05:19:45;;;;;;;;;;;;;;;24.56;50.62;101438.28;5041520;28;97135;-77
2021/07/23 05:22:13;;;;;;;;;;;;;;;24.66;50.42;101434.84;5022640;28;96951;-77
2021/07/23 05:24:40;;;;;;;;;;;;;;;24.66;50.36;101437.53;5033811;28;99089;-77
2021/07/23 05:27:07;;;;;;;;;;;;;;;24.78;49.87;101431.09;5024191;27;98647;-77
2021/07/23 05:29:35;;;;;;;;;;;;;;;24.68;49.78;101433.69;5025697;28;97312;-78
2021/07/23 05:32:01;;;;;;;;;;;;;;;24.77;49.75;101432.94;5029104;28;96972;-78
2021/07/23 05:34:27;;;;;;;;;;;;;;;24.73;50.02;101433.34;5030147;28;99376;-79
2021/07/23 05:36:56;;;;;;;;;;;;;;;24.74;50.25;101421.53;5018839;28;99289;-78
2021/07/23 05:39:22;;;;;;;;;;;;;;;24.71;50.15;101425.34;5029458;28;97127;-77
2021/07/23 05:41:50;;;;;;;;;;;;;;;24.72;50.56;101421.66;5013747;28;97103;-78
2021/07/23 05:44:17;;;;;;;;;;;;;;;24.98;50.19;101427.59;5020694;28;98922;-77
2021/07/23 05:46:43;;;;;;;;;;;;;;;25.33;49.18;101425.44;5019725;28;98169;-79
2021/07/23 05:49:11;;;;;;;;;;;;;;;25.61;48.61;101425.75;5014836;28;96910;-78
2021/07/23 05:51:37;;;;;;;;;;;;;;;25.67;48.52;101427.91;5019509;28;96927;-78
2021/07/23 05:54:04;;;;;;;;;;;;;;;25.83;47.40;101428.28;5024027;27;98297;-78
2021/07/23 05:56:30;;;;;;;;;;;;;;;25.91;46.94;101428.47;5024916;28;99211;-78
2021/07/23 05:58:58;;;;;;;;;;;;;;;25.83;47.40;101428.28;5032934;27;97933;-79
2021/07/23 06:01:25;;;;;;;;;;;;;;;25.92;47.15;101424.75;5031954;27;97988;-80
2021/07/23 06:03:53;;;;;;;;;;;;;;;25.72;47.54;101418.41;5028982;28;99246;-81
2021/07/23 06:06:27;;;;;;;;;;;;;;;25.60;47.83;101422.16;5025979;28;98583;-78
2021/07/23 06:08:56;;;;;;;;;;;;;;;25.45;47.59;101423.50;5026166;28;96874;-77
2021/07/23 06:11:24;;;;;;;;;;;;;;;25.66;47.47;101418.94;5022829;27;97474;-79
2021/07/23 06:13:50;;;;;;;;;;;;;;;25.99;46.82;101419.66;5020663;28;97946;-76
2021/07/23 06:16:18;;;;;;;;;;;;;;;26.26;45.90;101428.00;5032900;28;101660;-78
2021/07/23 06:18:44;;;;;;;;;;;;;;;26.06;44.82;101426.19;5032633;28;96860;-78
2021/07/23 06:21:11;;;;;;;;;;;;;;;26.33;44.03;101431.00;5024311;28;97061;-78
2021/07/23 06:23:37;;;;;;;;;;;;;;;26.94;42.95;101421.69;5034646;28;97738;-77
2021/07/23 06:26:04;;;;;;;;;;;;;;;26.88;43.24;101424.94;5031459;28;99153;-78
2021/07/23 06:28:30;;;;;;;;;;;;;;;26.59;43.30;101422.22;5025299;27;96958;-78
2021/07/23 06:31:00;;;;;;;;;;;;;;;26.51;42.15;101427.50;5022283;28;97071;-77
2021/07/23 06:33:28;;;;;;;;;;;;;;;26.55;42.55;101426.22;5026843;27;97225;-78
2021/07/23 06:35:55;;;;;;;;;;;;;;;26.42;42.85;101427.47;5013775;28;98477;-77
2021/07/23 06:38:22;;;;;;;;;;;;;;;27.01;41.79;101434.66;5016668;28;98694;-78
2021/07/23 06:40:49;;;;;;;;;;;;;;;27.07;41.75;101434.94;5019755;28;97590;-80
2021/07/23 06:43:16;;;;;;;;;;;;;;;27.07;41.33;101434.09;5006220;28;97627;-78
2021/07/23 06:45:44;;;;;;;;;;;;;;;26.93;41.44;101438.09;5021983;28;97895;-76
2021/07/23 06:48:10;;;;;;;;;;;;;;;26.90;40.71;101428.41;5023704;28;100516;-77
2021/07/23 06:50:37;;;;;;;;;;;;;;;27.00;40.13;101433.81;5018134;28;96931;-76
2021/07/23 06:53:04;;;;;;;;;;;;;;;26.93;40.10;101429.97;5019357;28;98230;-77
2021/07/23 06:55:30;;;;;;;;;;;;;;;27.35;39.46;101427.78;5025430;28;98006;-77
2021/07/23 06:57:58;;;;;;;;;;;;;;;27.66;38.74;101431.13;5020675;28;98699;-78
2021/07/23 07:00:24;;;;;;;;;;;;;;;26.98;40.07;101430.38;5026641;28;97268;-77
2021/07/23 07:02:55;;;;;;;;;;;;;;;26.24;41.81;101432.72;5018450;27;98930;-77
2021/07/23 07:05:24;;;;;;;;;;;;;;;26.45;41.59;101433.44;5017659;28;97601;-76
2021/07/23 07:07:52;;;;;;;;;;;;;;;26.47;41.54;101430.63;5031686;27;97138;-77
2021/07/23 07:10:18;;;;;;;;;;;;;;;26.40;41.43;101435.72;5024468;27;97056;-75
2021/07/23 07:12:44;;;;;;;;;;;;;;;26.08;42.23;101429.63;5020481;28;98301;-76
2021/07/23 07:15:11;;;;;;;;;;;;;;;26.75;40.99;101421.66;5022536;28;97961;-77
2021/07/23 07:17:37;;;;;;;;;;;;;;;26.72;41.21;101423.78;5018583;27;96870;-75
2021/07/23 07:20:04;;;;;;;;;;;;;;;26.54;41.52;101431.75;5023545;27;97316;-78
2021/07/23 07:22:30;;;;;;;;;;;;;;;26.30;41.47;101432.16;5017556;28;98247;-77
2021/07/23 07:24:58;;;;;;;;;;;;;;;26.89;40.05;101421.25;5023649;28;99780;-77
2021/07/23 07:27:25;;;;;;;;;;;;;;;26.82;40.05;101424.66;5020090;28;97268;-78
2021/07/23 07:29:51;;;;;;;;;;;;;;;26.68;40.76;101427.78;5015748;27;97044;-77
2021/07/23 07:32:17;;;;;;;;;;;;;;;27.06;40.61;101425.09;5014438;27;98944;-78
2021/07/23 07:34:44;;;;;;;;;;;;;;;27.33;39.32;101425.19;5014806;27;101456;-76
2021/07/23 07:37:10;;;;;;;;;;;;;;;27.60;38.03;101426.28;5018371;28;96921;-77
2021/07/23 07:39:36;;;;;;;;;;;;;;;27.30;38.96;101430.06;5015699;28;98204;-78
2021/07/23 07:42:06;;;;;;;;;;;;;;;27.96;37.43;101433.56;5022373;28;100287;-79
2021/07/23 07:44:32;;;;;;;;;;;;;;;28.38;36.71;101435.81;5018885;28;98037;-78
2021/07/23 07:46:59;;;;;;;;;;;;;;;28.19;35.94;101433.22;5016085;27;97231;-75
2021/07/23 07:49:25;;;;;;;;;;;;;;;28.38;35.42;101427.66;5023093;27;98530;-76
2021/07/23 07:51:51;;;;;;;;;;;;;;;28.37;35.73;101429.50;5024197;27;99237;-78
2021/07/23 07:54:18;;;;;;;;;;;;;;;28.35;35.70;101433.41;5019023;28;99380;-76
2021/07/23 07:56:44;;;;;;;;;;;;;;;29.26;34.36;101430.38;5017874;28;98214;-77
2021/07/23 07:59:12;;;;;;;;;;;;;;;29.22;32.75;101442.59;5021198;28;98479;-77
2021/07/23 08:01:39;;;;;;;;;;;;;;;28.97;33.53;101440.69;5020822;28;97360;-76
2021/07/23 08:04:05;;;;;;;;;;;;;;;28.26;33.97;101435.16;5010511;28;98675;-78
2021/07/23 08:06:34;;;;;;;;;;;;;;;28.25;34.22;101436.16;5017489;27;97550;-79
2021/07/23 08:09:04;;;;;;;;;;;;;;;28.93;33.07;101440.16;5019909;27;97024;-77
2021/07/23 08:11:31;;;;;;;;;;;;;;;29.64;32.17;101433.72;5015127;28;99238;-77
2021/07/23 08:13:57;;;;;;;;;;;;;;;29.34;32.49;101436.94;5016147;27;101864;-76
2021/07/23 08:16:25;;;;;;;;;;;;;;;29.46;32.53;101436.50;5016146;28;97850;-76
2021/07/23 08:18:51;;;;;;;;;;;;;;;29.46;32.79;101439.22;5018605;27;96954;-77
2021/07/23 08:21:17;;;;;;;;;;;;;;;29.34;32.99;101435.06;5019431;28;97865;-77
2021/07/23 08:23:44;;;;;;;;;;;;;;;29.52;32.26;101430.41;5013932;28;98892;-78
2021/07/23 08:26:10;;;;;;;;;;;;;;;29.75;31.96;101432.56;5019557;27;97368;-77
2021/07/23 08:28:37;;;;;;;;;;;;;;;29.59;32.36;101434.22;5021620;27;96855;-78
2021/07/23 08:31:13;;;;;;;;;;;;;;;;;;;;;
2021/07/23 08:33:42;;;;;;;;;;;;;;;29.05;32.95;101432.59;5018439;27;125131;-79
2021/07/23 08:36:09;;;;;;;;;;;;;;;28.68;34.11;101434.59;5015336;27;96903;-77
2021/07/23 08:38:35;;;;;;;;;;;;;;;28.49;34.18;101428.28;5017972;27;96882;-78
2021/07/23 08:41:02;;;;;;;;;;;;;;;28.05;35.43;101427.25;5015421;28;99377;-76
2021/07/23 08:43:29;;;;;;;;;;;;;;;28.80;34.01;101427.97;5015370;28;98873;-76
2021/07/23 08:45:55;;;;;;;;;;;;;;;29.22;32.98;101422.69;5021253;28;98713;-76
2021/07/23 08:48:21;;;;;;;;;;;;;;;29.00;33.13;101423.19;5018593;28;98591;-78
2021/07/23 08:50:49;;;;;;;;;;;;;;;29.11;33.42;101422.94;5018567;28;101130;-76
2021/07/23 08:53:16;;;;;;;;;;;;;;;28.78;33.72;101432.69;5015587;27;98829;-76
2021/07/23 08:55:44;;;;;;;;;;;;;;;27.98;35.54;101426.13;5020060;27;108469;-76
2021/07/23 08:58:11;;;;;;;;;;;;;;;28.49;34.86;101427.41;5013568;28;98616;-78
2021/07/23 09:00:37;;;;;;;;;;;;;;;28.80;34.25;101428.81;5012274;27;99183;-76
2021/07/23 09:03:04;;;;;;;;;;;;;;;28.69;34.38;101426.28;5018118;27;99337;-77
2021/07/23 09:05:31;;;;;;;;;;;;;;;27.65;35.61;101421.28;5015577;28;96864;-76
2021/07/23 09:08:00;;;;;;;;;;;;;;;27.51;35.51;101416.28;5015518;28;97122;-77
2021/07/23 09:10:28;;;;;;;;;;;;;;;27.81;35.34;101413.38;5015160;28;99236;-76
2021/07/23 09:12:56;;;;;;;;;;;;;;;28.18;34.74;101412.47;5020739;28;99165;-75
2021/07/23 09:15:27;;;;;;;;;;;;;;;28.35;34.69;101417.09;5010557;28;96927;-76
2021/07/23 09:17:54;;;;;;;;;;;;;;;28.28;34.53;101411.44;5015700;28;96888;-76
2021/07/23 09:20:21;;;;;;;;;;;;;;;28.47;34.59;101416.72;5019674;28;98184;-75
2021/07/23 09:22:48;;;;;;;;;;;;;;;29.23;33.33;101411.63;5001673;28;98473;-76
2021/07/23 09:25:31;;;;;;;;;;;;;;;29.18;32.72;101408.53;5013878;27;98597;-75
2021/07/23 09:27:58;;;;;;;;;;;;;;;29.60;32.42;101405.94;5020099;28;97175;-77
2021/07/23 09:30:30;;;;;;;;;;;;;;;29.41;32.40;101402.59;5018149;28;98928;-75
2021/07/23 09:32:58;;;;;;;;;;;;;;;29.39;32.65;101401.91;5017674;28;98828;-76
2021/07/23 09:35:24;;;;;;;;;;;;;;;29.44;32.66;101394.97;5018752;28;97236;-75
2021/07/23 09:37:57;;;;;;;;;;;;;;;28.66;34.02;101410.28;5013434;28;96872;-75
2021/07/23 09:40:25;;;;;;;;;;;;;;;29.76;32.23;101393.44;5016303;28;101685;-76
2021/07/23 09:42:56;;;;;;;;;;;;;;;30.32;31.47;101384.66;5015368;28;98178;-76
2021/07/23 09:45:26;;;;;;;;;;;;;;;30.47;30.83;101391.97;5021661;28;96854;-77
2021/07/23 09:47:52;;;;;;;;;;;;;;;30.62;30.81;101385.91;5020162;27;97012;-76
2021/07/23 09:50:19;;;;;;;;;;;;;;;30.18;31.08;101388.00;5014422;28;97388;-76
2021/07/23 09:52:45;;;;;;;;;;;;;;;30.30;31.69;101382.06;5020775;27;99112;-75
2021/07/23 09:55:12;;;;;;;;;;;;;;;29.52;32.69;101375.09;5017890;27;97491;-76
2021/07/23 09:57:41;;;;;;;;;;;;;;;30.34;32.10;101382.59;5017789;28;96837;-75
2021/07/23 10:00:10;;;;;;;;;;;;;;;29.96;32.51;101373.13;5015838;28;100909;-77
2021/07/23 10:02:43;;;;;;;;;;;;;;;29.35;33.44;101373.28;5018276;27;99233;-78
2021/07/23 10:05:12;;;;;;;;;;;;;;;28.93;34.13;101374.88;5018897;28;96896;-78
2021/07/23 10:07:41;;;;;;;;;;;;;;;28.65;34.42;101375.94;5020980;28;97697;-76
2021/07/23 10:10:10;;;;;;;;;;;;;;;28.58;34.70;101377.56;5015613;28;98717;-76
2021/07/23 10:12:36;;;;;;;;;;;;;;;28.56;34.58;101371.44;5019373;28;99912;-76
2021/07/23 10:15:09;;;;;;;;;;;;;;;29.11;34.03;101369.38;5017063;27;97902;-77
2021/07/23 10:17:37;;;;;;;;;;;;;;;29.18;33.15;101375.03;5016646;28;97054;-77
2021/07/23 10:20:04;;;;;;;;;;;;;;;29.92;32.51;101372.59;5017621;28;98810;-77
2021/07/23 10:22:30;;;;;;;;;;;;;;;30.65;31.67;101374.66;5020382;28;99123;-74
2021/07/23 10:24:57;;;;;;;;;;;;;;;30.40;30.89;101377.31;5015099;27;96960;-75
2021/07/23 10:27:23;;;;;;;;;;;;;;;30.37;31.33;101374.94;5018458;28;97689;-75
2021/07/23 10:29:50;;;;;;;;;;;;;;;30.19;31.07;101368.78;5014814;27;99669;-76
2021/07/23 10:32:31;;;;;;;;;;;;;;;29.82;32.13;101360.94;5021762;28;98768;-76
2021/07/23 10:34:58;;;;;;;;;;;;;;;29.70;32.44;101360.38;5020017;28;96899;-77
2021/07/23 10:37:39;;;;;;;;;;;;;;;29.60;32.01;101356.91;5019166;28;97713;-75
2021/07/23 10:40:15;;;;;;;;;;;;;;;28.83;33.44;101359.63;5018447;28;98768;-75
2021/07/23 10:42:42;;;;;;;;;;;;;;;29.24;33.42;101350.75;5021880;28;99132;-75
2021/07/23 10:45:09;;;;;;;;;;;;;;;29.28;33.00;101346.69;5020882;27;98020;-76
2021/07/23 10:47:42;;;;;;;;;;;;;;;29.55;32.56;101348.41;5022635;28;96930;-74
2021/07/23 10:50:13;;;;;;;;;;;;;;;28.86;33.89;101351.16;5021817;28;99352;-75
2021/07/23 10:52:39;;;;;;;;;;;;;;;28.76;34.32;101351.25;5021779;28;97348;-76
2021/07/23 10:55:17;;;;;;;;;;;;;;;29.24;33.26;101350.75;5022027;27;96943;-76
2021/07/23 10:57:44;;;;;;;;;;;;;;;29.28;33.38;101348.53;5022544;28;97039;-76
2021/07/23 11:00:11;;;;;;;;;;;;;;;29.28;33.12;101340.38;5020017;27;98418;-77
2021/07/23 11:02:46;;;;;;;;;;;;;;;29.52;32.50;101343.28;5023575;28;98949;-75
2021/07/23 11:05:13;;;;;;;;;;;;;;;29.51;33.25;101340.72;5022990;28;96781;-75
2021/07/23 11:07:40;;;;;;;;;;;;;;;29.45;33.17;101341.38;5023831;28;96947;-76
2021/07/23 11:10:09;;;;;;;;;;;;;;;29.15;32.62;101339.97;5021108;28;99355;-75
2021/07/23 11:12:40;;;;;;;;;;;;;;;28.74;33.83;101345.13;5004344;28;99271;-76
2021/07/23 11:15:07;;;;;;;;;;;;;;;30.02;31.87;101343.34;5025829;28;96876;-76
2021/07/23 11:17:34;;;;;;;;;;;;;;;29.66;32.34;101339.97;5028140;27;98247;-76
2021/07/23 11:20:04;;;;;;;;;;;;;;;30.55;31.06;101347.53;5023468;28;99487;-76
2021/07/23 11:22:32;;;;;;;;;;;;;;;30.71;30.50;101335.78;5026262;28;98932;-76
2021/07/23 11:24:59;;;;;;;;;;;;;;;30.79;30.44;101336.63;5024331;27;97116;-78
2021/07/23 11:27:26;;;;;;;;;;;;;;;31.01;30.74;101332.34;5022806;28;96857;-77
2021/07/23 11:29:53;;;;;;;;;;;;;;;30.79;30.89;101333.03;5016407;27;98188;-76
2021/07/23 11:32:21;;;;;;;;;;;;;;;30.53;31.57;101332.34;5018406;28;98522;-76
2021/07/23 11:34:47;;;;;;;;;;;;;;;30.46;31.10;101332.16;5017923;28;97116;-77
2021/07/23 11:37:16;;;;;;;;;;;;;;;29.88;31.93;101326.72;5023419;27;97921;-77
2021/07/23 11:39:50;;;;;;;;;;;;;;;29.85;31.98;101317.03;5019802;27;99140;-75
2021/07/23 11:42:16;;;;;;;;;;;;;;;30.45;31.23;101325.88;5017926;27;97728;-75
2021/07/23 11:44:50;;;;;;;;;;;;;;;30.32;30.56;101322.78;5017431;28;98254;-75
2021/07/23 11:47:16;;;;;;;;;;;;;;;30.79;30.21;101313.94;5019068;27;96975;-76
2021/07/23 11:49:43;;;;;;;;;;;;;;;30.97;30.25;101325.53;5026076;27;99048;-74
2021/07/23 11:52:09;;;;;;;;;;;;;;;31.05;29.93;101319.25;5025041;27;98837;-75
2021/07/23 11:54:37;;;;;;;;;;;;;;;31.01;29.79;101315.97;5014223;28;97893;-77
2021/07/23 11:57:04;;;;;;;;;;;;;;;30.78;30.30;101309.53;5017338;28;98513;-76
2021/07/23 11:59:36;;;;;;;;;;;;;;;30.86;30.25;101309.50;5013463;27;97715;-77
2021/07/23 12:02:07;;;;;;;;;;;;;;;31.16;29.28;101308.81;5012626;28;99152;-78
2021/07/23 12:04:33;;;;;;;;;;;;;;;31.15;29.27;101298.91;5016569;27;97339;-76
2021/07/23 12:06:59;;;;;;;;;;;;;;;31.01;29.71;101299.59;5016782;28;99226;-76
2021/07/23 12:09:26;;;;;;;;;;;;;;;30.96;30.12;101302.00;5016617;28;99027;-76
2021/07/23 12:11:54;;;;;;;;;;;;;;;30.67;30.09;101304.41;5016021;28;98910;-75
2021/07/23 12:14:25;;;;;;;;;;;;;;;30.55;31.42;101297.59;5020106;28;97816;-76
2021/07/23 12:16:52;;;;;;;;;;;;;;;30.44;30.87;101296.91;5017254;28;98008;-76
2021/07/23 12:19:19;;;;;;;;;;;;;;;30.51;30.87;101285.34;5017160;27;98896;-75
2021/07/23 12:21:46;;;;;;;;;;;;;;;30.65;30.74;101288.25;5017204;27;99190;-75
2021/07/23 12:24:13;;;;;;;;;;;;;;;31.10;30.13;101286.81;5018468;28;97107;-76
2021/07/23 12:26:40;;;;;;;;;;;;;;;31.12;30.03;101284.75;5023646;28;97310;-78
2021/07/23 12:29:09;;;;;;;;;;;;;;;30.66;30.73;101278.16;5014501;28;99242;-75
2021/07/23 12:31:37;;;;;;;;;;;;;;;31.15;29.59;101278.97;5021659;28;101361;-76
2021/07/23 12:34:07;;;;;;;;;;;;;;;31.08;30.06;101280.69;5030461;28;96776;-76
2021/07/23 12:36:40;;;;;;;;;;;;;;;31.48;29.37;101285.16;5024021;28;97436;-77
2021/07/23 12:39:06;;;;;;;;;;;;;;;31.24;29.26;101273.28;5020371;28;99265;-77